Wheaton, MN

7:36 AM CDT on August 26, 2016 (GMT -0500)
Wheaton Municipal

Weather History for KETH - November, 2012

Change the Weather History Date:

Thursday, November 8, 2012

  Actual Average Record
Temperature  
Mean Temperature 40 °F -  
Max Temperature 48 °F 45 °F 77 °F (2006)
Min Temperature 33 °F 25 °F 0 °F (2003)
Degree Days  
Heating Degree Days 24    
Moisture  
Dew Point 34 °F    
Average Humidity 83    
Maximum Humidity 93    
Minimum Humidity 66    
Precipitation  
Precipitation 0.00 in - - ()
Sea Level Pressure  
Sea Level Pressure 29.96 in    
Wind  
Wind Speed 14 mph (North)    
Max Wind Speed 23 mph    
Max Gust Speed 29 mph    
Visibility 10 miles    
Events      
Averages and records for this station are not official NWS values.
T = Trace of Precipitation, MM = Missing Value Source: NWS Daily Summary

Daily Weather History Graph

Daily Weather History Graph

Search for Another Location

Airport or City:

Trip Planner

Search our weather history database for the weather conditions in past years. The results will help you decide how hot, cold, wet, or windy it might be!

Date:

Astronomy

Nov. 08, 2012 Rise Set
Actual Time 7:16 AM CST 5:02 PM CST
Civil Twilight 6:45 AM CST 5:34 PM CST
Nautical Twilight 6:09 AM CST 6:09 PM CST
Astronomical Twilight 5:34 AM CST 6:44 PM CST
Moon 12:55 AM CST (11/8) 1:59 PM CST (11/8)
Length of Visible Light 10h 48m
Length of Day
9h 45m
Waning Crescent, 32% of the Moon is Illuminated
Nov 8
Waning Crescent
Nov 13
New
Nov 20
First Quarter
Nov 28
Full
Dec 6
Last Quarter

Hourly Weather History & Observations

Time (CST) Temp. Windchill Dew Point Humidity Pressure Visibility Wind Dir Wind Speed Gust Speed Precip Events Conditions
12:15 AM 39.2 °F 29.6 °F 33.8 °F 81% 29.86 in 10.0 mi SE 19.6 mph 24.2 mph N/A   Clear
12:35 AM 39.2 °F 29.8 °F 33.8 °F 81% 29.86 in 10.0 mi SE 18.4 mph - N/A   Clear
12:54 AM 39.2 °F 29.6 °F 33.8 °F 81% 29.85 in 10.0 mi SE 19.6 mph - N/A   Clear
1:14 AM 39.2 °F 29.0 °F 33.8 °F 81% 29.84 in 10.0 mi SE 21.9 mph - N/A   Clear
1:34 AM 39.2 °F 29.6 °F 33.8 °F 81% 29.84 in 10.0 mi SE 19.6 mph - N/A   Clear
1:54 AM 39.2 °F 30.5 °F 32.0 °F 75% 29.85 in 10.0 mi SE 16.1 mph - N/A   Clear
2:34 AM 37.4 °F 27.5 °F 33.8 °F 87% 29.84 in 10.0 mi SE 18.4 mph - N/A   Clear
2:54 AM 37.4 °F 27.8 °F 32.0 °F 81% 29.83 in 10.0 mi SE 17.3 mph 21.9 mph N/A   Clear
3:14 AM 37.4 °F 27.8 °F 32.0 °F 81% 29.82 in 10.0 mi SE 17.3 mph - N/A   Clear
3:34 AM 37.4 °F 28.2 °F 32.0 °F 81% 29.82 in 10.0 mi SE 16.1 mph 24.2 mph N/A   Clear
3:54 AM 37.4 °F 30.8 °F 32.0 °F 81% 29.85 in 10.0 mi SE 9.2 mph - N/A   Clear
4:14 AM 35.6 °F 28.0 °F 32.0 °F 87% 29.85 in 10.0 mi SE 10.4 mph - N/A   Clear
4:34 AM 35.6 °F 28.0 °F 32.0 °F 87% 29.84 in 10.0 mi SE 10.4 mph - N/A   Clear
4:54 AM 35.6 °F 28.0 °F 30.2 °F 81% 29.84 in 10.0 mi SE 10.4 mph - N/A   Clear
5:14 AM 33.8 °F 26.4 °F 30.2 °F 87% 29.85 in 10.0 mi SE 9.2 mph - N/A   Clear
5:34 AM 33.8 °F 25.8 °F 30.2 °F 87% 29.86 in 10.0 mi SE 10.4 mph - N/A   Clear
5:54 AM 33.8 °F 26.4 °F 30.2 °F 87% 29.86 in 10.0 mi SE 9.2 mph - N/A   Clear
6:14 AM 33.8 °F 26.4 °F 30.2 °F 87% 29.86 in 10.0 mi SE 9.2 mph - N/A   Clear
6:34 AM 33.8 °F 27.0 °F 30.2 °F 87% 29.86 in 10.0 mi SE 8.1 mph - N/A   Clear
6:54 AM 33.8 °F 27.7 °F 30.2 °F 87% 29.87 in 10.0 mi SE 6.9 mph - N/A   Clear
7:14 AM 33.8 °F 27.0 °F 30.2 °F 87% 29.87 in 10.0 mi SE 8.1 mph - N/A   Clear
7:34 AM 33.8 °F 29.6 °F 30.2 °F 87% 29.88 in 10.0 mi SE 4.6 mph - N/A   Clear
7:54 AM 33.8 °F 27.7 °F 32.0 °F 93% 29.88 in 10.0 mi SE 6.9 mph - N/A   Clear
8:14 AM 35.6 °F - 32.0 °F 87% 29.91 in 10.0 mi Calm Calm - N/A   Clear
8:35 AM 35.6 °F - 33.8 °F 93% 29.91 in 10.0 mi Calm Calm - N/A   Clear
8:55 AM 37.4 °F 34.9 °F 33.8 °F 87% 29.92 in 10.0 mi SSW 3.5 mph - N/A   Clear
9:14 AM 39.2 °F 35.9 °F 35.6 °F 87% 29.92 in 10.0 mi SW 4.6 mph - N/A   Clear
9:35 AM 41.0 °F 38.0 °F 35.6 °F 81% 29.92 in 10.0 mi WSW 4.6 mph - N/A   Clear
9:54 AM 42.8 °F 39.3 °F 35.6 °F 76% 29.93 in 10.0 mi West 5.8 mph - N/A   Clear
10:14 AM 42.8 °F 37.5 °F 35.6 °F 76% 29.93 in 10.0 mi West 9.2 mph - N/A   Clear
10:34 AM 42.8 °F 37.0 °F 35.6 °F 76% 29.94 in 10.0 mi NW 10.4 mph - N/A   Clear
10:54 AM 42.8 °F 36.2 °F 35.6 °F 76% 29.95 in 10.0 mi NW 12.7 mph 18.4 mph N/A   Clear
11:15 AM 48.2 °F - 37.4 °F 66% 29.96 in 10.0 mi NW 19.6 mph 25.3 mph N/A   Clear
11:35 AM 48.2 °F - 37.4 °F 66% 29.95 in 10.0 mi NNW 17.3 mph 24.2 mph N/A   Clear
11:54 AM 48.2 °F - 39.2 °F 71% 29.96 in 10.0 mi NNW 20.7 mph 27.6 mph N/A   Scattered Clouds
12:14 PM 44.6 °F 37.8 °F 37.4 °F 76% 29.96 in 10.0 mi NNW 15.0 mph 28.8 mph N/A   Mostly Cloudy
12:54 PM 44.6 °F 36.9 °F 37.4 °F 76% 29.98 in 10.0 mi NNW 18.4 mph 24.2 mph N/A   Overcast
1:15 PM 42.8 °F 33.5 °F 37.4 °F 81% 29.98 in 10.0 mi NNW 23.0 mph 28.8 mph N/A   Overcast
1:34 PM 42.8 °F 34.5 °F 37.4 °F 81% 29.98 in 10.0 mi NNW 18.4 mph 25.3 mph N/A   Overcast
1:54 PM 42.8 °F 34.8 °F 37.4 °F 81% 29.99 in 10.0 mi NNW 17.3 mph 23.0 mph N/A   Overcast
2:14 PM 42.8 °F 34.5 °F 35.6 °F 76% 30.00 in 10.0 mi NNW 18.4 mph 27.6 mph N/A   Overcast
2:34 PM 41.0 °F 31.9 °F 35.6 °F 81% 30.01 in 10.0 mi North 19.6 mph 25.3 mph N/A   Overcast
2:55 PM 41.0 °F 33.1 °F 35.6 °F 81% 30.02 in 10.0 mi North 15.0 mph 23.0 mph N/A   Overcast
3:14 PM 41.0 °F 32.5 °F 35.6 °F 81% 30.02 in 10.0 mi North 17.3 mph 21.9 mph N/A   Overcast
3:35 PM 41.0 °F 32.5 °F 35.6 °F 81% 30.03 in 10.0 mi NNW 17.3 mph 24.2 mph N/A   Overcast
3:54 PM 42.8 °F 35.8 °F 35.6 °F 76% 30.03 in 10.0 mi NNW 13.8 mph 18.4 mph N/A   Mostly Cloudy
4:15 PM 42.8 °F 35.4 °F 35.6 °F 76% 30.03 in 10.0 mi North 15.0 mph 18.4 mph N/A   Overcast
4:34 PM 41.0 °F 32.8 °F 35.6 °F 81% 30.04 in 10.0 mi NNW 16.1 mph 19.6 mph N/A   Overcast
4:54 PM 39.2 °F 30.2 °F 35.6 °F 87% 30.05 in 10.0 mi North 17.3 mph 21.9 mph N/A   Overcast
5:14 PM 39.2 °F 31.2 °F 33.8 °F 81% 30.05 in 10.0 mi North 13.8 mph - N/A   Overcast
5:35 PM 39.2 °F 31.6 °F 33.8 °F 81% 30.06 in 10.0 mi North 12.7 mph - N/A   Overcast
5:55 PM 39.2 °F 31.6 °F 33.8 °F 81% 30.06 in 10.0 mi NNW 12.7 mph - N/A   Overcast
6:14 PM 39.2 °F 31.2 °F 33.8 °F 81% 30.07 in 10.0 mi North 13.8 mph - N/A   Overcast
6:35 PM 39.2 °F 31.6 °F 33.8 °F 81% 30.06 in 10.0 mi NNW 12.7 mph - N/A   Overcast
6:54 PM 39.2 °F 32.5 °F 33.8 °F 81% 30.07 in 10.0 mi North 10.4 mph 17.3 mph N/A   Overcast
7:15 PM 37.4 °F 29.8 °F 33.8 °F 87% 30.06 in 10.0 mi North 11.5 mph - N/A   Overcast
7:34 PM 37.4 °F 30.8 °F 33.8 °F 87% 30.07 in 10.0 mi North 9.2 mph - N/A   Overcast
7:55 PM 37.4 °F 30.3 °F 33.8 °F 87% 30.07 in 10.0 mi North 10.4 mph - N/A   Overcast
8:14 PM 37.4 °F 30.8 °F 33.8 °F 87% 30.08 in 10.0 mi North 9.2 mph - N/A   Overcast
8:35 PM 37.4 °F 31.4 °F 33.8 °F 87% 30.08 in 10.0 mi North 8.1 mph - N/A   Overcast
8:55 PM 37.4 °F 30.8 °F 33.8 °F 87% 30.07 in 10.0 mi North 9.2 mph - N/A   Overcast
9:15 PM 37.4 °F 30.8 °F 33.8 °F 87% 30.08 in 10.0 mi North 9.2 mph - N/A   Overcast
9:35 PM 37.4 °F 31.4 °F 33.8 °F 87% 30.08 in 10.0 mi North 8.1 mph - N/A   Overcast
9:55 PM 37.4 °F 30.8 °F 33.8 °F 87% 30.07 in 10.0 mi North 9.2 mph - N/A   Overcast
10:14 PM 37.4 °F 32.1 °F 33.8 °F 87% 30.07 in 10.0 mi North 6.9 mph - N/A   Overcast
10:34 PM 37.4 °F 31.4 °F 33.8 °F 87% 30.08 in 10.0 mi NNW 8.1 mph - N/A   Overcast
10:55 PM 37.4 °F 30.3 °F 33.8 °F 87% 30.08 in 10.0 mi NNW 10.4 mph - N/A   Overcast
11:15 PM 37.4 °F 30.3 °F 33.8 °F 87% 30.09 in 10.0 mi North 10.4 mph - N/A   Overcast
11:35 PM 35.6 °F 28.6 °F 33.8 °F 93% 30.09 in 10.0 mi North 9.2 mph - N/A   Overcast
11:55 PM 35.6 °F 28.6 °F 33.8 °F 93% 30.09 in 10.0 mi NNW 9.2 mph - N/A   Overcast